Terminal Aerodrome Forecast
Issued by NWS Binghamton, NY

Current Version | Previous Version | Text Only | Print | Product List | Glossary On
Versions: 1 2 3 4 5 6 7 8 9 10 11 12 13 14 15 16 17 18 19 20
000
FTUS41 KBGM 011733
TAFBGM
TAF
KBGM 011733Z 0118/0218 30010G15KT P6SM SCT050
     FM020000 24004KT P6SM SCT100
     FM021500 24010KT P6SM SCT050=

USA.gov is the U.S. government's official web portal to all federal, state and local government web resources and services.